createdAt,value
2022-08-11T00:00:00.000Z,11.93
2022-08-11T00:15:00.000Z,11.87
2022-08-11T00:30:00.000Z,12.49
2022-08-11T00:45:00.000Z,12.12
2022-08-11T01:00:00.000Z,11.47
2022-08-11T01:15:00.000Z,11.93
2022-08-11T01:30:00.000Z,13.6
2022-08-11T01:45:00.000Z,12.21
2022-08-11T02:00:00.000Z,13.21
2022-08-11T02:15:00.000Z,13.68
2022-08-11T02:30:00.000Z,13.98
2022-08-11T02:45:00.000Z,14.4
2022-08-11T03:00:00.000Z,16.09
2022-08-11T03:15:00.000Z,13.87
2022-08-11T03:30:00.000Z,14.26
2022-08-11T03:45:00.000Z,13.87
2022-08-11T04:00:00.000Z,13.64
2022-08-11T04:15:00.000Z,14.28
2022-08-11T04:30:00.000Z,13.49
2022-08-11T04:45:00.000Z,14.15
2022-08-11T05:00:00.000Z,14.95
2022-08-11T05:15:00.000Z,15.41
2022-08-11T05:30:00.000Z,15.76
2022-08-11T05:45:00.000Z,14.99
2022-08-11T06:00:00.000Z,14.65
2022-08-11T06:15:00.000Z,13.3
2022-08-11T06:30:00.000Z,11.44
2022-08-11T06:45:00.000Z,11.78
2022-08-11T07:00:00.000Z,12.61
2022-08-11T07:15:00.000Z,10.49
2022-08-11T07:30:00.000Z,10.2
2022-08-11T07:45:00.000Z,9.18
2022-08-11T08:00:00.000Z,8.64
2022-08-11T08:15:00.000Z,8.39
2022-08-11T08:30:00.000Z,8.15
2022-08-11T08:45:00.000Z,8.35
2022-08-11T09:00:00.000Z,7.93
2022-08-11T09:15:00.000Z,8.13
2022-08-11T09:30:00.000Z,8.67
2022-08-11T09:45:00.000Z,8.75
2022-08-11T10:00:00.000Z,8.45
2022-08-11T10:15:00.000Z,7.99
2022-08-11T10:30:00.000Z,8.26
2022-08-11T10:45:00.000Z,8.48
2022-08-11T11:00:00.000Z,7.91
2022-08-11T11:15:00.000Z,7.6
2022-08-11T11:30:00.000Z,7.8
2022-08-11T12:00:00.000Z,7
2022-08-11T12:00:00.000Z,7.6
2022-08-11T12:15:00.000Z,7.41
2022-08-11T12:30:00.000Z,7.54
2022-08-11T12:45:00.000Z,7.26
2022-08-11T13:00:00.000Z,7.31
2022-08-11T13:15:00.000Z,7.09
2022-08-11T13:30:00.000Z,7.22
2022-08-11T13:45:00.000Z,7.12
2022-08-11T14:00:00.000Z,7.2
2022-08-11T14:15:00.000Z,7.19
2022-08-11T14:30:00.000Z,7.29
2022-08-11T14:45:00.000Z,7.38
2022-08-11T15:00:00.000Z,7.38
2022-08-11T15:15:00.000Z,7.38
2022-08-11T15:30:00.000Z,7.67
2022-08-11T15:45:00.000Z,7.28
2022-08-11T16:00:00.000Z,7.39
2022-08-11T16:15:00.000Z,7.84
2022-08-11T16:30:00.000Z,7.6
2022-08-11T16:45:00.000Z,7.4
2022-08-11T17:00:00.000Z,7.24
2022-08-11T17:15:00.000Z,7.18
2022-08-11T17:30:00.000Z,7.15
2022-08-11T17:45:00.000Z,7.26
2022-08-11T18:00:00.000Z,7.75
2022-08-11T18:15:00.000Z,7.31
2022-08-11T18:30:00.000Z,7.38
2022-08-11T18:45:00.000Z,7.89
2022-08-11T19:00:00.000Z,7.26
2022-08-11T19:15:00.000Z,7.71
2022-08-11T19:30:00.000Z,8.04
2022-08-11T19:45:00.000Z,7.54
2022-08-11T20:00:00.000Z,7.46
2022-08-11T20:15:00.000Z,7.41
2022-08-11T20:30:00.000Z,7.59
2022-08-11T20:45:00.000Z,8.26
2022-08-11T21:00:00.000Z,8.18
2022-08-11T21:30:00.000Z,10
2022-08-11T21:30:00.000Z,7.73
2022-08-11T21:45:00.000Z,7.42
2022-08-11T22:00:00.000Z,7.51
2022-08-11T22:15:00.000Z,7.65
2022-08-11T22:30:00.000Z,7.44
2022-08-11T22:45:00.000Z,7.55
2022-08-11T23:00:00.000Z,7.64
2022-08-11T23:15:00.000Z,7.54
2022-08-11T23:30:00.000Z,7.56
2022-08-11T23:45:00.000Z,8.73
